createdAt,value
2022-09-02T00:00:13.979Z,2.08
2022-09-02T00:00:37.207Z,1.85
2022-09-02T00:01:02.291Z,1.73
2022-09-02T00:01:35.132Z,1.70
2022-09-02T00:01:57.603Z,1.75
2022-09-02T00:02:19.595Z,1.80
2022-09-02T00:02:42.145Z,1.90
2022-09-02T00:03:05.110Z,2.03
2022-09-02T00:03:35.441Z,2.08
2022-09-02T00:04:07.749Z,2.05
2022-09-02T00:04:29.625Z,1.70
2022-09-02T00:04:51.464Z,1.95
2022-09-02T00:05:13.267Z,2.08
2022-09-02T00:05:35.243Z,2.10
2022-09-02T00:05:57.713Z,2.10
2022-09-02T00:06:19.587Z,2.00
2022-09-02T00:06:43.506Z,2.25
2022-09-02T00:07:05.323Z,1.98
2022-09-02T00:07:27.327Z,2.25
2022-09-02T00:07:49.124Z,2.10
2022-09-02T00:08:11.884Z,1.90
2022-09-02T00:08:33.747Z,1.88
2022-09-02T00:08:55.867Z,1.92
2022-09-02T00:09:21.404Z,1.90
2022-09-02T00:09:43.156Z,2.30
2022-09-02T00:10:05.501Z,2.13
2022-09-02T00:10:27.339Z,2.03
2022-09-02T00:10:50.503Z,1.90
2022-09-02T00:11:23.440Z,1.90
2022-09-02T00:11:48.250Z,1.90
2022-09-02T00:12:11.044Z,1.92
2022-09-02T00:12:32.855Z,2.13
2022-09-02T00:12:54.885Z,2.08
2022-09-02T00:13:20.145Z,1.92
2022-09-02T00:13:42.581Z,2.00
2022-09-02T00:14:08.129Z,1.90
2022-09-02T00:14:37.455Z,1.80
2022-09-02T00:14:59.203Z,1.83
2022-09-02T00:15:21.047Z,1.73
2022-09-02T00:15:44.167Z,1.58
2022-09-02T00:16:06.921Z,1.70
2022-09-02T00:16:30.305Z,1.85
2022-09-02T00:16:52.843Z,1.52
2022-09-02T00:17:14.778Z,1.88
2022-09-02T00:17:36.578Z,1.90
2022-09-02T00:17:59.045Z,1.95
2022-09-02T00:18:21.249Z,1.77
2022-09-02T00:18:45.994Z,1.80
2022-09-02T00:19:08.616Z,1.98
2022-09-02T00:19:31.505Z,2.08
2022-09-02T00:19:56.195Z,1.98
2022-09-02T00:20:18.930Z,1.60
2022-09-02T00:20:42.868Z,1.73
2022-09-02T00:21:05.083Z,1.83
2022-09-02T00:21:27.126Z,1.90
2022-09-02T00:21:50.062Z,1.85
2022-09-02T00:22:11.870Z,1.73
2022-09-02T00:22:33.742Z,1.92
2022-09-02T00:22:56.355Z,1.88
2022-09-02T00:23:18.845Z,1.75
2022-09-02T00:23:42.187Z,1.92
2022-09-02T00:24:05.792Z,1.80
2022-09-02T00:24:27.665Z,1.60
2022-09-02T00:24:49.608Z,1.60
2022-09-02T00:25:12.608Z,1.95
2022-09-02T00:25:35.615Z,1.70
2022-09-02T00:25:58.318Z,1.70
2022-09-02T00:26:20.585Z,1.70
2022-09-02T00:26:42.381Z,1.40
2022-09-02T00:27:04.329Z,1.52
2022-09-02T00:27:26.354Z,1.65
2022-09-02T00:27:48.169Z,1.70
2022-09-02T00:28:10.786Z,1.65
2022-09-02T00:28:32.576Z,1.60
2022-09-02T00:28:55.895Z,1.85
2022-09-02T00:29:18.993Z,2.08
2022-09-02T00:29:40.792Z,1.70
2022-09-02T00:30:03.542Z,1.73
2022-09-02T00:30:26.156Z,1.70
2022-09-02T00:30:48.112Z,1.90
2022-09-02T00:31:10.338Z,1.77
2022-09-02T00:31:34.806Z,1.60
2022-09-02T00:31:57.200Z,1.70
2022-09-02T00:32:19.726Z,1.73
2022-09-02T00:32:41.629Z,1.83
2022-09-02T00:33:06.114Z,1.80
2022-09-02T00:33:28.104Z,1.60
2022-09-02T00:33:51.455Z,1.70
2022-09-02T00:34:14.007Z,1.60
2022-09-02T00:34:35.962Z,1.52
2022-09-02T00:34:58.868Z,1.70
2022-09-02T00:35:21.065Z,1.65
2022-09-02T00:35:43.070Z,1.70
2022-09-02T00:36:05.642Z,1.77
2022-09-02T00:36:28.667Z,1.60
2022-09-02T00:36:51.244Z,1.52
2022-09-02T00:37:13.319Z,1.60
2022-09-02T00:37:35.169Z,1.98
2022-09-02T00:37:57.075Z,1.83
2022-09-02T00:38:19.379Z,1.80
2022-09-02T00:38:41.677Z,1.80
2022-09-02T00:39:08.317Z,1.83
2022-09-02T00:39:30.187Z,1.63
2022-09-02T00:39:53.519Z,1.90
2022-09-02T00:40:16.497Z,1.80
2022-09-02T00:40:39.445Z,1.60
2022-09-02T00:41:06.014Z,1.50
2022-09-02T00:41:29.826Z,1.67
2022-09-02T00:41:52.568Z,1.50
2022-09-02T00:42:16.262Z,1.60
2022-09-02T00:42:38.614Z,1.52
2022-09-02T00:43:00.838Z,1.55
2022-09-02T00:43:44.950Z,1.70
2022-09-02T00:44:11.235Z,1.50
2022-09-02T00:44:34.403Z,1.70
2022-09-02T00:44:56.208Z,1.67
2022-09-02T00:45:18.435Z,1.58
2022-09-02T00:45:40.249Z,1.60
2022-09-02T00:46:02.460Z,1.63
2022-09-02T00:46:26.424Z,1.70
2022-09-02T00:46:48.525Z,1.75
2022-09-02T00:47:10.308Z,1.67
2022-09-02T00:47:32.463Z,1.60
2022-09-02T00:47:54.273Z,1.70
2022-09-02T00:48:16.031Z,1.70
2022-09-02T00:48:42.110Z,1.80
2022-09-02T00:49:14.493Z,1.75
2022-09-02T00:49:40.510Z,1.52
2022-09-02T00:50:09.751Z,1.60
2022-09-02T00:50:36.087Z,1.45
2022-09-02T00:50:57.928Z,1.70
2022-09-02T00:51:20.141Z,1.70
2022-09-02T00:51:50.089Z,1.83
2022-09-02T00:52:19.948Z,1.90
2022-09-02T00:52:48.600Z,1.70
2022-09-02T00:53:13.485Z,1.80
2022-09-02T00:53:36.146Z,1.63
2022-09-02T00:53:58.808Z,1.70
2022-09-02T00:54:23.337Z,1.48
2022-09-02T00:54:52.983Z,1.30
2022-09-02T00:55:19.697Z,1.40
2022-09-02T00:55:46.287Z,1.58
2022-09-02T00:56:16.662Z,1.65
2022-09-02T00:56:44.158Z,1.50
2022-09-02T00:57:10.951Z,1.50
2022-09-02T00:57:38.054Z,2.00
2022-09-02T00:58:14.053Z,1.60
2022-09-02T00:58:37.762Z,1.73
2022-09-02T00:59:02.537Z,1.75
2022-09-02T00:59:33.014Z,1.58
2022-09-02T01:00:01.182Z,1.63
2022-09-02T01:00:27.431Z,1.63
2022-09-02T01:00:58.839Z,1.60
2022-09-02T01:01:22.674Z,1.75
2022-09-02T01:01:45.010Z,1.50
2022-09-02T01:02:09.731Z,1.80
2022-09-02T01:02:33.521Z,1.77
2022-09-02T01:02:59.028Z,1.92
2022-09-02T01:03:23.420Z,1.80
2022-09-02T01:03:45.450Z,1.55
2022-09-02T01:04:07.537Z,1.58
2022-09-02T01:04:29.520Z,1.60
2022-09-02T01:04:53.523Z,1.80
2022-09-02T01:05:18.105Z,1.40
2022-09-02T01:05:45.514Z,1.73
2022-09-02T01:06:08.306Z,1.30
2022-09-02T01:06:33.000Z,1.65
2022-09-02T01:06:55.089Z,1.92
2022-09-02T01:07:17.324Z,1.75
2022-09-02T01:07:39.973Z,1.40
2022-09-02T01:08:02.631Z,1.50
2022-09-02T01:08:32.588Z,1.80
2022-09-02T01:09:05.335Z,1.42
2022-09-02T01:09:27.510Z,1.40
2022-09-02T01:09:50.798Z,1.50
2022-09-02T01:10:18.855Z,1.42
2022-09-02T01:10:41.174Z,1.58
2022-09-02T01:11:06.525Z,1.60
2022-09-02T01:11:41.291Z,1.73
2022-09-02T01:12:03.716Z,1.70
2022-09-02T01:12:28.054Z,1.75
2022-09-02T01:12:55.346Z,1.63
2022-09-02T01:13:21.595Z,1.80
2022-09-02T01:13:43.994Z,1.80
2022-09-02T01:14:07.340Z,1.70
2022-09-02T01:14:29.963Z,1.63
2022-09-02T01:14:51.821Z,1.58
2022-09-02T01:15:14.594Z,1.80
2022-09-02T01:15:39.790Z,1.90
2022-09-02T01:16:27.496Z,1.70
2022-09-02T01:16:53.589Z,1.60
2022-09-02T01:17:20.530Z,1.70
2022-09-02T01:17:47.842Z,1.80
2022-09-02T01:18:14.887Z,1.58
2022-09-02T01:18:36.808Z,1.63
2022-09-02T01:19:01.866Z,1.60
2022-09-02T01:19:28.361Z,1.40
2022-09-02T01:20:00.904Z,1.40
2022-09-02T01:20:26.691Z,1.50
2022-09-02T01:20:48.851Z,1.73
2022-09-02T01:21:11.079Z,1.80
2022-09-02T01:21:33.034Z,1.70
2022-09-02T01:22:00.250Z,1.73
2022-09-02T01:22:28.020Z,1.80
2022-09-02T01:22:50.580Z,1.40
2022-09-02T01:23:17.439Z,1.45
2022-09-02T01:23:39.693Z,1.73
2022-09-02T01:24:02.163Z,1.58
2022-09-02T01:24:29.791Z,1.70
2022-09-02T01:24:54.792Z,1.60
2022-09-02T01:25:19.858Z,1.55
2022-09-02T01:25:41.852Z,1.50
2022-09-02T01:26:05.183Z,1.60
2022-09-02T01:26:27.401Z,1.60
2022-09-02T01:26:51.817Z,1.38
2022-09-02T01:27:19.835Z,1.50
2022-09-02T01:27:42.120Z,1.80
2022-09-02T01:28:12.253Z,1.75
2022-09-02T01:28:35.421Z,1.60
2022-09-02T01:28:57.305Z,1.48
2022-09-02T01:29:19.589Z,1.40
2022-09-02T01:29:41.424Z,1.45
2022-09-02T01:30:04.992Z,1.58
2022-09-02T01:30:27.583Z,1.58
2022-09-02T01:30:54.088Z,1.63
2022-09-02T01:31:16.064Z,1.55
2022-09-02T01:31:38.209Z,1.52
2022-09-02T01:32:00.323Z,1.60
2022-09-02T01:32:23.023Z,1.70
2022-09-02T01:32:45.060Z,1.70
2022-09-02T01:33:06.904Z,1.60
2022-09-02T01:33:29.610Z,1.70
2022-09-02T01:33:55.442Z,1.50
2022-09-02T01:34:18.037Z,1.40
2022-09-02T01:34:39.810Z,1.60
2022-09-02T01:35:01.617Z,1.48
2022-09-02T01:35:23.730Z,1.48
2022-09-02T01:35:46.334Z,1.30
2022-09-02T01:36:08.901Z,1.45
2022-09-02T01:36:30.758Z,1.40
2022-09-02T01:36:55.317Z,1.45
2022-09-02T01:37:17.582Z,1.73
2022-09-02T01:37:39.973Z,1.65
2022-09-02T01:38:02.602Z,1.60
2022-09-02T01:38:26.051Z,1.65
2022-09-02T01:38:48.017Z,1.40
2022-09-02T01:39:12.449Z,1.48
2022-09-02T01:39:34.343Z,1.52
2022-09-02T01:39:57.230Z,1.50
2022-09-02T01:40:19.353Z,1.40
2022-09-02T01:40:41.654Z,1.48
2022-09-02T01:41:03.922Z,1.55
2022-09-02T01:41:26.084Z,1.52
2022-09-02T01:41:48.325Z,1.50
2022-09-02T01:42:10.120Z,1.50
2022-09-02T01:42:32.003Z,1.70
2022-09-02T01:43:02.782Z,1.40
2022-09-02T01:43:26.287Z,1.25
2022-09-02T01:43:48.080Z,1.60
2022-09-02T01:44:10.773Z,1.30
2022-09-02T01:44:35.494Z,1.40
2022-09-02T01:44:57.329Z,1.48
2022-09-02T01:45:19.248Z,1.40
2022-09-02T01:45:43.206Z,1.58
2022-09-02T01:46:05.275Z,1.33
2022-09-02T01:46:27.234Z,1.40
2022-09-02T01:46:49.090Z,1.33
2022-09-02T01:47:16.309Z,1.40
2022-09-02T01:47:38.730Z,1.40
2022-09-02T01:48:00.566Z,1.50
2022-09-02T01:48:23.218Z,1.40
2022-09-02T01:48:44.994Z,1.45
2022-09-02T01:49:06.932Z,1.40
2022-09-02T01:49:28.839Z,1.60
2022-09-02T01:49:54.393Z,1.45
2022-09-02T01:50:16.505Z,1.58
2022-09-02T01:50:46.773Z,1.60
2022-09-02T01:51:08.890Z,1.52
2022-09-02T01:51:31.360Z,1.55
2022-09-02T01:51:56.493Z,1.48
2022-09-02T01:52:19.898Z,1.35
2022-09-02T01:52:41.773Z,1.50
2022-09-02T01:53:04.209Z,1.40
2022-09-02T01:53:27.424Z,1.45
2022-09-02T01:53:51.888Z,1.38
2022-09-02T01:54:13.950Z,1.40
2022-09-02T01:54:38.350Z,1.38
2022-09-02T01:55:00.606Z,1.50
2022-09-02T01:55:22.872Z,1.75
2022-09-02T01:55:44.903Z,1.75
2022-09-02T01:56:06.677Z,1.43
2022-09-02T01:56:28.482Z,1.50
2022-09-02T01:56:50.337Z,1.60
2022-09-02T01:57:13.361Z,1.70
2022-09-02T01:57:35.207Z,1.70
2022-09-02T01:57:57.651Z,1.70
2022-09-02T01:58:19.684Z,1.55
2022-09-02T01:58:41.839Z,1.60
2022-09-02T01:59:04.718Z,1.60
2022-09-02T01:59:27.263Z,1.40
2022-09-02T01:59:49.160Z,1.50
2022-09-02T02:00:12.090Z,1.50
2022-09-02T02:00:34.675Z,1.25
2022-09-02T02:00:56.797Z,1.50
2022-09-02T02:01:18.914Z,1.70
2022-09-02T02:01:40.891Z,1.33
2022-09-02T02:02:03.180Z,1.30
2022-09-02T02:02:25.097Z,1.38
2022-09-02T02:02:47.522Z,1.50
2022-09-02T02:03:09.466Z,1.60
2022-09-02T02:03:31.468Z,1.63
2022-09-02T02:03:53.263Z,1.60
2022-09-02T02:04:16.058Z,1.50
2022-09-02T02:04:38.029Z,1.40
2022-09-02T02:05:00.697Z,1.50
2022-09-02T02:05:22.904Z,1.58
2022-09-02T02:05:44.989Z,1.60
2022-09-02T02:06:14.990Z,1.40
2022-09-02T02:06:42.897Z,1.55
2022-09-02T02:07:05.641Z,1.50
2022-09-02T02:07:27.476Z,1.17
2022-09-02T02:07:51.362Z,1.27
2022-09-02T02:08:13.466Z,1.48
2022-09-02T02:08:35.250Z,1.60
2022-09-02T02:08:57.040Z,1.50
2022-09-02T02:09:19.624Z,1.50
2022-09-02T02:09:42.778Z,1.50
2022-09-02T02:10:06.565Z,1.52
2022-09-02T02:10:28.863Z,1.50
2022-09-02T02:10:50.697Z,1.48
2022-09-02T02:11:18.788Z,1.52
2022-09-02T02:11:42.122Z,1.70
2022-09-02T02:12:06.266Z,1.52
2022-09-02T02:12:28.627Z,1.38
2022-09-02T02:12:51.780Z,1.70
2022-09-02T02:13:13.794Z,1.70
2022-09-02T02:13:36.329Z,1.60
2022-09-02T02:13:58.153Z,1.90
2022-09-02T02:14:20.544Z,1.60
2022-09-02T02:14:42.421Z,1.50
2022-09-02T02:15:10.834Z,1.50
2022-09-02T02:15:53.492Z,1.60
2022-09-02T02:16:15.400Z,1.70
2022-09-02T02:16:37.966Z,1.77
2022-09-02T02:17:00.274Z,1.70
2022-09-02T02:17:22.661Z,1.70
2022-09-02T02:17:44.707Z,1.50
2022-09-02T02:18:07.183Z,1.50
2022-09-02T02:18:29.820Z,1.60
2022-09-02T02:18:52.222Z,1.63
2022-09-02T02:19:14.184Z,1.60
2022-09-02T02:19:36.282Z,1.60
2022-09-02T02:19:58.088Z,1.42
2022-09-02T02:20:21.500Z,1.40
2022-09-02T02:20:44.992Z,1.50
2022-09-02T02:21:06.950Z,1.50
2022-09-02T02:21:29.304Z,1.58
2022-09-02T02:21:51.234Z,1.30
2022-09-02T02:22:16.337Z,1.40
2022-09-02T02:22:39.175Z,1.58
2022-09-02T02:23:01.250Z,1.55
2022-09-02T02:23:24.484Z,1.50
2022-09-02T02:23:46.998Z,1.60
2022-09-02T02:24:09.479Z,1.80
2022-09-02T02:24:31.295Z,1.70
2022-09-02T02:24:54.307Z,1.65
2022-09-02T02:25:17.170Z,1.40
2022-09-02T02:25:39.222Z,1.50
2022-09-02T02:26:00.981Z,1.60
2022-09-02T02:26:23.911Z,1.63
2022-09-02T02:26:46.761Z,1.60
2022-09-02T02:27:09.979Z,1.60
2022-09-02T02:27:32.079Z,1.60
2022-09-02T02:27:56.103Z,1.50
2022-09-02T02:28:18.262Z,1.52
2022-09-02T02:28:40.041Z,1.50
2022-09-02T02:29:02.081Z,1.40
2022-09-02T02:29:23.916Z,1.63
2022-09-02T02:29:45.902Z,1.48
2022-09-02T02:30:09.844Z,1.50
2022-09-02T02:30:31.719Z,1.42
2022-09-02T02:30:54.748Z,1.35
2022-09-02T02:31:16.756Z,1.50
2022-09-02T02:31:39.373Z,1.40
2022-09-02T02:32:01.229Z,1.45
2022-09-02T02:32:23.200Z,1.50
2022-09-02T02:32:47.513Z,1.60
2022-09-02T02:33:09.287Z,1.50
2022-09-02T02:33:36.137Z,1.67
2022-09-02T02:33:58.272Z,1.80
2022-09-02T02:34:20.254Z,1.55
2022-09-02T02:34:42.704Z,1.67
2022-09-02T02:35:04.797Z,1.63
2022-09-02T02:35:27.384Z,1.45
2022-09-02T02:35:49.416Z,1.70
2022-09-02T02:36:12.399Z,1.80
2022-09-02T02:36:35.113Z,1.70
2022-09-02T02:36:56.951Z,1.55
2022-09-02T02:37:23.366Z,1.50
2022-09-02T02:37:49.337Z,1.63
2022-09-02T02:38:14.443Z,1.58
2022-09-02T02:38:38.509Z,1.60
2022-09-02T02:39:01.586Z,1.70
2022-09-02T02:39:23.442Z,1.92
2022-09-02T02:39:45.564Z,1.88
2022-09-02T02:40:08.461Z,1.80
2022-09-02T02:40:30.539Z,1.73
2022-09-02T02:40:57.533Z,1.80
2022-09-02T02:41:19.565Z,1.58
2022-09-02T02:41:44.910Z,1.65
2022-09-02T02:42:07.867Z,1.70
2022-09-02T02:42:29.869Z,1.90
2022-09-02T02:42:55.527Z,1.73
2022-09-02T02:43:17.537Z,1.80
2022-09-02T02:43:40.079Z,1.70
2022-09-02T02:44:04.571Z,1.90
2022-09-02T02:44:27.799Z,1.63
2022-09-02T02:44:49.671Z,1.75
2022-09-02T02:45:14.942Z,1.70
2022-09-02T02:45:37.044Z,1.85
2022-09-02T02:46:00.142Z,1.95
2022-09-02T02:46:21.939Z,1.50
2022-09-02T02:46:44.179Z,1.80
2022-09-02T02:47:07.811Z,1.70
2022-09-02T02:47:29.652Z,1.52
2022-09-02T02:47:52.595Z,1.50
2022-09-02T02:48:14.338Z,1.48
2022-09-02T02:48:36.984Z,1.63
2022-09-02T02:49:03.951Z,1.65
2022-09-02T02:49:27.275Z,1.60
2022-09-02T02:49:49.165Z,1.73
2022-09-02T02:50:13.888Z,1.50
2022-09-02T02:50:35.692Z,1.70
2022-09-02T02:50:57.442Z,2.00
2022-09-02T02:51:20.209Z,1.70
2022-09-02T02:51:42.328Z,1.60
2022-09-02T02:52:04.601Z,1.70
2022-09-02T02:52:27.207Z,1.58
2022-09-02T02:52:53.538Z,1.55
2022-09-02T02:53:17.456Z,1.55
2022-09-02T02:53:40.503Z,1.60
2022-09-02T02:54:04.349Z,1.67
2022-09-02T02:54:28.989Z,1.80
2022-09-02T02:54:57.000Z,1.40
2022-09-02T02:55:19.321Z,1.73
2022-09-02T02:55:41.610Z,1.67
2022-09-02T02:56:05.485Z,1.70
2022-09-02T02:56:28.586Z,1.88
2022-09-02T02:56:50.350Z,1.80
2022-09-02T02:57:13.877Z,1.63
2022-09-02T02:57:38.929Z,1.52
2022-09-02T02:58:01.687Z,1.60
2022-09-02T02:58:23.818Z,1.70
2022-09-02T02:58:45.825Z,1.60
2022-09-02T02:59:07.948Z,1.77
2022-09-02T02:59:29.889Z,1.80
2022-09-02T02:59:52.031Z,1.60
2022-09-02T03:00:20.432Z,1.40
2022-09-02T03:00:42.497Z,1.60
2022-09-02T03:01:04.728Z,1.52
2022-09-02T03:01:27.123Z,1.58
2022-09-02T03:01:48.995Z,1.65
2022-09-02T03:02:10.998Z,1.50
2022-09-02T03:02:34.439Z,1.70
2022-09-02T03:03:10.641Z,1.60
2022-09-02T03:03:32.614Z,1.67
2022-09-02T03:03:54.468Z,1.90
2022-09-02T03:04:16.529Z,1.80
2022-09-02T03:04:39.944Z,1.77
2022-09-02T03:05:03.691Z,1.50
2022-09-02T03:05:27.040Z,1.60
2022-09-02T03:05:50.251Z,1.70
2022-09-02T03:06:12.272Z,1.65
2022-09-02T03:06:36.230Z,1.70
2022-09-02T03:07:00.347Z,1.42
2022-09-02T03:07:22.134Z,1.50
2022-09-02T03:07:43.946Z,1.63
2022-09-02T03:08:08.081Z,1.73
2022-09-02T03:08:33.209Z,1.60
2022-09-02T03:08:56.725Z,1.60
2022-09-02T03:09:23.134Z,1.63
2022-09-02T03:09:44.939Z,1.60
2022-09-02T03:10:08.677Z,1.60
2022-09-02T03:10:32.827Z,1.60
2022-09-02T03:10:56.259Z,1.85
2022-09-02T03:11:18.216Z,1.60
2022-09-02T03:11:40.176Z,1.63
2022-09-02T03:12:02.609Z,1.60
2022-09-02T03:12:25.072Z,1.55
2022-09-02T03:12:47.547Z,1.60
2022-09-02T03:13:11.559Z,1.67
2022-09-02T03:13:34.657Z,1.70
2022-09-02T03:13:56.719Z,1.67
2022-09-02T03:14:19.000Z,1.70
2022-09-02T03:14:40.767Z,1.80
2022-09-02T03:15:03.062Z,1.80
2022-09-02T03:15:25.095Z,1.55
2022-09-02T03:15:47.178Z,1.83
2022-09-02T03:16:09.250Z,1.80
2022-09-02T03:16:31.232Z,1.50
2022-09-02T03:16:53.219Z,1.67
2022-09-02T03:17:15.027Z,1.60
2022-09-02T03:17:38.103Z,1.60
2022-09-02T03:17:59.915Z,1.85
2022-09-02T03:18:21.828Z,1.60
2022-09-02T03:18:43.805Z,1.45
2022-09-02T03:19:06.391Z,1.50
2022-09-02T03:19:28.244Z,1.70
2022-09-02T03:19:50.717Z,1.65
2022-09-02T03:20:12.883Z,1.48
2022-09-02T03:20:35.237Z,1.80
2022-09-02T03:20:57.096Z,1.70
2022-09-02T03:21:19.224Z,1.67
2022-09-02T03:21:42.055Z,1.70
2022-09-02T03:22:04.769Z,1.60
2022-09-02T03:22:29.391Z,1.60
2022-09-02T03:22:54.844Z,1.60
2022-09-02T03:23:18.014Z,1.60
2022-09-02T03:23:39.935Z,1.77
2022-09-02T03:24:01.811Z,1.60
2022-09-02T03:24:23.584Z,1.60
2022-09-02T03:24:45.582Z,1.40
2022-09-02T03:25:08.751Z,1.42
2022-09-02T03:25:36.014Z,1.60
2022-09-02T03:25:57.991Z,1.50
2022-09-02T03:26:23.741Z,1.70
2022-09-02T03:26:46.982Z,1.52
2022-09-02T03:27:08.803Z,1.45
2022-09-02T03:27:30.585Z,1.50
2022-09-02T03:27:52.924Z,1.40
2022-09-02T03:28:15.440Z,1.60
2022-09-02T03:28:37.288Z,1.70
2022-09-02T03:28:59.681Z,1.80
2022-09-02T03:29:21.503Z,1.80
2022-09-02T03:29:45.009Z,1.80
2022-09-02T03:30:10.359Z,1.63
2022-09-02T03:30:33.874Z,1.63
2022-09-02T03:30:56.396Z,1.70
2022-09-02T03:31:20.714Z,1.85
2022-09-02T03:31:42.597Z,1.70
2022-09-02T03:32:04.818Z,1.48
2022-09-02T03:32:30.492Z,1.50
2022-09-02T03:32:54.667Z,1.70
2022-09-02T03:33:16.766Z,1.60
2022-09-02T03:33:39.460Z,1.60
2022-09-02T03:34:01.236Z,1.60
2022-09-02T03:34:23.102Z,1.70
2022-09-02T03:34:44.964Z,1.50
2022-09-02T03:35:09.813Z,1.60
2022-09-02T03:35:33.158Z,1.55
2022-09-02T03:35:54.947Z,2.00
2022-09-02T03:36:40.706Z,1.77
2022-09-02T03:37:02.710Z,1.63
2022-09-02T03:37:24.547Z,1.80
2022-09-02T03:37:47.658Z,1.60
2022-09-02T03:38:10.798Z,1.70
2022-09-02T03:38:32.587Z,1.90
2022-09-02T03:38:54.839Z,1.98
2022-09-02T03:39:16.661Z,1.80
2022-09-02T03:39:40.941Z,1.80
2022-09-02T03:40:17.694Z,1.60
2022-09-02T03:40:42.464Z,2.10
2022-09-02T03:41:04.348Z,2.00
2022-09-02T03:41:26.238Z,1.73
2022-09-02T03:41:49.768Z,1.90
2022-09-02T03:42:17.465Z,1.90
2022-09-02T03:42:41.944Z,2.13
2022-09-02T03:43:04.962Z,1.83
2022-09-02T03:43:26.706Z,1.88
2022-09-02T03:43:49.728Z,1.80
2022-09-02T03:44:11.522Z,2.00
2022-09-02T03:44:34.308Z,1.73
2022-09-02T03:44:56.076Z,2.00
2022-09-02T03:45:19.108Z,1.80
2022-09-02T03:45:41.961Z,1.83
2022-09-02T03:46:05.260Z,1.70
2022-09-02T03:46:27.208Z,1.80
2022-09-02T03:46:49.194Z,1.98
2022-09-02T03:47:11.281Z,2.00
2022-09-02T03:47:34.090Z,1.90
2022-09-02T03:47:56.810Z,2.08
2022-09-02T03:48:18.792Z,1.80
2022-09-02T03:48:41.397Z,2.10
2022-09-02T03:49:04.032Z,1.92
2022-09-02T03:49:27.568Z,1.92
2022-09-02T03:49:49.672Z,2.00
2022-09-02T03:50:11.516Z,1.80
2022-09-02T03:50:39.305Z,2.13
2022-09-02T03:51:02.437Z,2.08
2022-09-02T03:51:25.766Z,1.83
2022-09-02T03:51:47.716Z,1.80
2022-09-02T03:52:09.448Z,1.75
2022-09-02T03:52:31.271Z,2.00
2022-09-02T03:52:53.291Z,1.80
2022-09-02T03:53:18.161Z,1.90
2022-09-02T03:53:41.923Z,1.70
2022-09-02T03:54:05.015Z,2.00
2022-09-02T03:54:27.092Z,1.83
2022-09-02T03:54:51.378Z,1.63
2022-09-02T03:55:13.271Z,2.08
2022-09-02T03:55:37.646Z,2.13
2022-09-02T03:56:07.933Z,1.90
2022-09-02T03:56:29.915Z,1.92
2022-09-02T03:56:51.875Z,1.90
2022-09-02T03:57:13.980Z,2.10
2022-09-02T03:57:36.807Z,1.90
2022-09-02T03:57:58.911Z,2.03
2022-09-02T03:58:22.290Z,2.00
2022-09-02T03:58:46.863Z,1.90
2022-09-02T03:59:08.673Z,1.90
2022-09-02T03:59:30.584Z,2.03
2022-09-02T03:59:52.409Z,1.80
2022-09-02T04:00:17.163Z,2.00
2022-09-02T04:00:39.218Z,2.00
2022-09-02T04:01:01.228Z,2.00
2022-09-02T04:01:25.011Z,2.05
2022-09-02T04:01:50.153Z,1.90
2022-09-02T04:02:12.495Z,2.20
2022-09-02T04:02:35.391Z,2.20
2022-09-02T04:02:57.617Z,2.20
2022-09-02T04:03:20.739Z,2.10
2022-09-02T04:03:43.233Z,2.05
2022-09-02T04:04:06.522Z,1.83
2022-09-02T04:04:28.661Z,1.90
2022-09-02T04:04:50.586Z,1.85
2022-09-02T04:05:15.766Z,1.98
2022-09-02T04:05:37.841Z,1.98
2022-09-02T04:06:00.519Z,2.05
2022-09-02T04:06:25.062Z,2.25
2022-09-02T04:06:48.110Z,1.80
2022-09-02T04:07:10.292Z,1.83
2022-09-02T04:07:33.417Z,2.25
2022-09-02T04:07:57.063Z,2.28
2022-09-02T04:08:20.026Z,2.10
2022-09-02T04:08:44.942Z,2.00
2022-09-02T04:09:07.087Z,1.98
2022-09-02T04:09:28.881Z,1.80
2022-09-02T04:09:50.920Z,1.88
2022-09-02T04:10:12.737Z,1.98
2022-09-02T04:10:34.574Z,1.95
2022-09-02T04:10:56.498Z,1.80
2022-09-02T04:11:21.778Z,2.00
2022-09-02T04:11:43.604Z,1.70
2022-09-02T04:12:08.297Z,1.70
2022-09-02T04:12:32.409Z,1.70
2022-09-02T04:12:54.327Z,1.80
2022-09-02T04:13:16.998Z,1.63
2022-09-02T04:13:41.574Z,1.85
2022-09-02T04:14:03.579Z,2.00
2022-09-02T04:14:25.880Z,1.80
2022-09-02T04:14:48.071Z,1.75
2022-09-02T04:15:13.451Z,1.70
2022-09-02T04:15:39.930Z,1.80
2022-09-02T04:16:10.768Z,1.80
2022-09-02T04:16:35.054Z,1.65
2022-09-02T04:16:57.054Z,1.80
2022-09-02T04:17:19.048Z,1.80
2022-09-02T04:17:42.430Z,1.90
2022-09-02T04:18:04.299Z,1.90
2022-09-02T04:18:26.244Z,2.10
2022-09-02T04:18:49.879Z,1.98
2022-09-02T04:19:11.984Z,1.60
2022-09-02T04:19:33.989Z,2.00
2022-09-02T04:19:56.269Z,1.77
2022-09-02T04:20:18.101Z,1.90
2022-09-02T04:20:41.519Z,1.80
2022-09-02T04:21:03.652Z,2.08
2022-09-02T04:21:27.033Z,1.98
2022-09-02T04:21:48.988Z,2.20
2022-09-02T04:22:10.985Z,2.20
2022-09-02T04:22:33.136Z,2.17
2022-09-02T04:22:55.010Z,2.08
2022-09-02T04:23:16.943Z,2.20
2022-09-02T04:23:38.981Z,2.00
2022-09-02T04:24:02.020Z,2.25
2022-09-02T04:24:24.337Z,2.33
2022-09-02T04:24:46.760Z,2.03
2022-09-02T04:25:10.096Z,1.90
2022-09-02T04:25:33.215Z,2.20
2022-09-02T04:25:55.277Z,2.08
2022-09-02T04:26:18.105Z,2.20
2022-09-02T04:26:44.838Z,2.10
2022-09-02T04:27:07.284Z,2.15
2022-09-02T04:27:30.753Z,1.77
2022-09-02T04:27:54.513Z,1.88
2022-09-02T04:28:16.469Z,2.22
2022-09-02T04:28:38.409Z,2.25
2022-09-02T04:29:02.076Z,2.10
2022-09-02T04:29:24.249Z,1.95
2022-09-02T04:29:45.994Z,2.22
2022-09-02T04:30:09.195Z,2.38
2022-09-02T04:30:31.004Z,2.22
2022-09-02T04:31:43.011Z,2.08
2022-09-02T04:35:03.401Z,2.22
2022-09-02T04:35:25.192Z,2.28
2022-09-02T04:35:49.330Z,2.20
2022-09-02T04:36:14.616Z,2.10
2022-09-02T04:36:36.631Z,2.20
2022-09-02T04:36:58.450Z,2.28
2022-09-02T04:37:20.357Z,2.47
2022-09-02T04:37:42.137Z,2.30
2022-09-02T04:38:04.145Z,2.30
2022-09-02T04:38:26.003Z,2.40
2022-09-02T04:38:47.921Z,2.30
2022-09-02T04:39:10.099Z,2.17
2022-09-02T04:39:31.932Z,2.20
2022-09-02T04:39:54.168Z,2.13
2022-09-02T04:40:16.486Z,2.28
2022-09-02T04:40:45.659Z,2.65
2022-09-02T04:41:22.875Z,2.20
2022-09-02T04:41:45.394Z,2.42
2022-09-02T04:42:07.514Z,2.38
2022-09-02T04:42:29.521Z,2.30
2022-09-02T04:42:52.250Z,2.47
2022-09-02T04:43:18.567Z,2.47
2022-09-02T04:43:41.298Z,2.50
2022-09-02T04:44:04.453Z,2.35
2022-09-02T04:44:26.438Z,2.33
2022-09-02T04:44:48.258Z,2.38
2022-09-02T04:45:10.551Z,2.08
2022-09-02T04:45:32.701Z,2.60
2022-09-02T04:45:54.798Z,2.35
2022-09-02T04:46:17.342Z,2.15
2022-09-02T04:46:39.912Z,2.55
2022-09-02T04:47:02.451Z,2.53
2022-09-02T04:47:24.507Z,2.40
2022-09-02T04:47:46.564Z,2.47
2022-09-02T04:48:09.372Z,2.13
2022-09-02T04:48:32.518Z,2.45
2022-09-02T04:48:55.169Z,2.70
2022-09-02T04:49:17.810Z,2.25
2022-09-02T04:49:39.656Z,2.47
2022-09-02T04:50:01.513Z,2.47
2022-09-02T04:50:23.317Z,2.50
2022-09-02T04:50:45.712Z,2.60
2022-09-02T04:51:11.173Z,2.30
2022-09-02T04:51:33.262Z,2.30
2022-09-02T04:51:55.077Z,2.47
2022-09-02T04:52:17.167Z,2.55
2022-09-02T04:52:40.509Z,2.50
2022-09-02T04:53:02.367Z,2.70
2022-09-02T04:53:24.201Z,2.47
2022-09-02T04:53:48.147Z,2.45
2022-09-02T04:54:10.033Z,2.50
2022-09-02T04:54:31.936Z,2.38
2022-09-02T04:54:53.784Z,2.25
2022-09-02T04:55:15.594Z,2.40
2022-09-02T04:55:40.931Z,2.13
2022-09-02T04:56:12.429Z,2.38
2022-09-02T04:56:34.346Z,2.47
2022-09-02T04:56:56.243Z,2.20
2022-09-02T04:57:18.174Z,2.13
2022-09-02T04:57:40.110Z,2.13
2022-09-02T04:58:01.995Z,2.40
2022-09-02T04:58:24.304Z,2.30
2022-09-02T04:58:46.293Z,2.25
2022-09-02T04:59:08.727Z,2.28
2022-09-02T04:59:30.525Z,2.35
2022-09-02T04:59:52.339Z,2.35
2022-09-02T05:00:14.777Z,2.08
2022-09-02T05:00:41.088Z,2.45
2022-09-02T05:01:07.275Z,2.35
2022-09-02T05:01:32.863Z,2.38
2022-09-02T05:01:55.004Z,2.20
2022-09-02T05:02:17.421Z,2.28
2022-09-02T05:02:39.766Z,2.47
2022-09-02T05:03:01.717Z,2.50
2022-09-02T05:03:24.707Z,2.22
2022-09-02T05:03:47.844Z,2.00
2022-09-02T05:04:09.875Z,2.28
2022-09-02T05:04:32.952Z,2.20
2022-09-02T05:04:54.742Z,2.50
2022-09-02T05:05:16.651Z,2.40
2022-09-02T05:05:39.416Z,2.35
2022-09-02T05:06:06.941Z,2.38
2022-09-02T05:06:29.312Z,2.20
2022-09-02T05:06:51.106Z,2.30
2022-09-02T05:07:13.232Z,2.40
2022-09-02T05:07:38.601Z,2.65
2022-09-02T05:08:00.399Z,2.60
2022-09-02T05:08:23.721Z,2.97
2022-09-02T05:08:48.053Z,3.78
2022-09-02T05:09:09.986Z,2.60
2022-09-02T05:09:32.940Z,2.28
2022-09-02T05:09:59.296Z,2.40
2022-09-02T05:10:22.508Z,2.97
2022-09-02T05:10:44.492Z,4.55
2022-09-02T05:11:14.674Z,3.28
2022-09-02T05:11:36.620Z,3.20
2022-09-02T05:11:58.459Z,2.83
2022-09-02T05:12:20.831Z,3.40
2022-09-02T05:12:43.642Z,4.80
2022-09-02T05:13:06.792Z,5.03
2022-09-02T05:13:29.102Z,3.53
2022-09-02T05:13:51.961Z,2.38
2022-09-02T05:14:14.499Z,2.40
2022-09-02T05:14:36.965Z,2.78
2022-09-02T05:15:01.141Z,2.13
2022-09-02T05:15:23.193Z,2.40